Time;durP1;ratioP1;P1;durP2;ratioP2;P2;SDS_P1;SDS_P2;PMS_P1;PMS_P2;Temp;Humidity;BMP_temperature;BMP_pressure;BME280_temperature;BME280_humidity;BME280_pressure;Samples;Min_cycle;Max_cycle;Signal;HPM_P1;HPM_P2
2022/06/29 00:00:40;;;;;;;4.78;2.20;;;;;;;18.10;69.16;101535.25;5052560;28;20162;-50
2022/06/29 00:03:08;;;;;;;6.07;2.03;;;;;;;18.06;69.54;101539.16;5053080;28;20507;-55
2022/06/29 00:05:36;;;;;;;3.97;1.80;;;;;;;18.03;69.54;101550.91;5052526;28;20511;-55
2022/06/29 00:08:05;;;;;;;3.92;2.22;;;;;;;17.99;69.54;101553.97;5052422;28;20052;-54
2022/06/29 00:10:35;;;;;;;4.15;1.92;;;;;;;18.00;69.72;101551.16;5051367;28;20591;-54
2022/06/29 00:13:05;;;;;;;7.38;2.90;;;;;;;17.92;70.08;101536.84;5051329;28;20072;-49
2022/06/29 00:15:33;;;;;;;8.90;2.95;;;;;;;17.85;70.35;101541.81;5052734;28;20100;-46
2022/06/29 00:18:01;;;;;;;9.88;2.30;;;;;;;17.74;71.07;101540.91;5050255;28;20053;-54
2022/06/29 00:20:29;;;;;;;6.63;2.30;;;;;;;17.73;71.55;101531.22;5048473;28;20037;-55
2022/06/29 00:22:57;;;;;;;7.47;2.70;;;;;;;17.74;71.28;101524.09;5052140;28;20107;-46
2022/06/29 00:25:25;;;;;;;5.95;2.67;;;;;;;17.70;71.70;101534.16;5050024;28;20442;-55
2022/06/29 00:27:53;;;;;;;7.82;2.60;;;;;;;17.65;72.44;101541.66;5047482;28;20102;-54
2022/06/29 00:30:23;;;;;;;6.85;2.65;;;;;;;17.61;72.19;101542.06;5050520;28;20099;-46
2022/06/29 00:32:52;;;;;;;6.93;2.88;;;;;;;17.59;72.57;101531.56;5049786;28;20041;-46
2022/06/29 00:35:20;;;;;;;7.78;2.70;;;;;;;17.58;72.38;101530.69;5048581;28;20045;-47
2022/06/29 00:37:48;;;;;;;5.97;2.50;;;;;;;17.54;72.53;101523.13;5052227;28;20053;-53
2022/06/29 00:40:16;;;;;;;7.40;2.42;;;;;;;17.46;73.49;101520.28;5052374;28;20095;-46
2022/06/29 00:42:44;;;;;;;6.13;2.60;;;;;;;17.50;72.65;101519.88;5052594;28;20083;-55
2022/06/29 00:45:13;;;;;;;6.78;2.97;;;;;;;17.51;72.82;101528.72;5050033;28;20797;-55
2022/06/29 00:47:42;;;;;;;7.68;3.17;;;;;;;17.46;73.37;101523.75;5049053;28;20052;-47
2022/06/29 00:50:10;;;;;;;9.23;3.13;;;;;;;17.42;73.70;101519.66;5051916;28;20110;-50
2022/06/29 00:52:42;;;;;;;5.47;2.47;;;;;;;17.47;73.65;101516.66;5051070;28;20159;-55
2022/06/29 00:55:17;;;;;;;5.50;2.65;;;;;;;17.45;73.06;101508.81;5046821;28;20380;-55
2022/06/29 00:57:46;;;;;;;6.95;2.88;;;;;;;17.39;73.50;101507.47;5049478;28;20264;-56
2022/06/29 01:00:15;;;;;;;9.57;2.92;;;;;;;17.38;73.69;101508.47;5051914;28;20057;-49
2022/06/29 01:02:44;;;;;;;6.95;2.83;;;;;;;17.33;74.63;101505.34;5051332;28;20040;-48
2022/06/29 01:05:14;;;;;;;6.35;2.75;;;;;;;17.31;74.95;101507.28;5048211;28;20124;-49
2022/06/29 01:07:42;;;;;;;6.03;2.67;;;;;;;17.34;74.69;101503.53;5050724;28;20053;-48
2022/06/29 01:10:11;;;;;;;6.60;2.60;;;;;;;17.27;75.45;101500.53;5051907;28;20056;-54
2022/06/29 01:12:39;;;;;;;6.80;2.83;;;;;;;17.30;76.23;101499.44;5052973;28;20418;-50
2022/06/29 01:15:09;;;;;;;6.95;2.70;;;;;;;17.28;75.80;101501.38;5056112;28;20532;-50
2022/06/29 01:17:37;;;;;;;6.32;2.53;;;;;;;17.28;75.68;101499.56;5056200;28;20086;-54
2022/06/29 01:20:09;;;;;;;7.13;2.97;;;;;;;17.22;75.51;101497.44;5055955;28;20057;-49
2022/06/29 01:22:39;;;;;;;6.85;3.17;;;;;;;17.15;75.60;101506.88;5055981;28;20411;-50
2022/06/29 01:25:08;;;;;;;6.57;3.00;;;;;;;17.06;76.13;101496.03;5051180;28;20040;-55
2022/06/29 01:27:37;;;;;;;7.97;3.60;;;;;;;17.06;76.05;101498.69;5052704;28;20095;-52
2022/06/29 01:30:07;;;;;;;6.18;3.03;;;;;;;17.03;76.22;101493.63;5054720;28;20045;-54
2022/06/29 01:32:38;;;;;;;7.00;3.10;;;;;;;17.05;76.23;101491.66;5051693;28;20075;-53
2022/06/29 01:35:09;;;;;;;7.90;3.40;;;;;;;16.99;76.43;101484.22;5054256;28;20496;-48
2022/06/29 01:37:40;;;;;;;9.20;3.22;;;;;;;16.97;76.89;101485.31;5055770;28;20116;-46
2022/06/29 01:40:09;;;;;;;7.50;3.83;;;;;;;16.90;76.44;101484.97;5053837;28;20577;-53
2022/06/29 01:42:38;;;;;;;12.55;4.65;;;;;;;16.92;76.83;101484.84;5052829;28;20099;-47
2022/06/29 01:45:07;;;;;;;10.57;4.40;;;;;;;16.84;77.06;101480.16;5053343;28;20045;-55
2022/06/29 01:47:35;;;;;;;14.90;5.10;;;;;;;16.77;78.22;101484.25;5055349;28;20071;-48
2022/06/29 01:50:04;;;;;;;10.10;4.40;;;;;;;16.78;78.04;101476.16;5054912;28;20392;-53
2022/06/29 01:52:32;;;;;;;7.88;3.78;;;;;;;16.75;77.72;101480.91;5054512;28;20072;-46
2022/06/29 01:55:01;;;;;;;7.32;3.30;;;;;;;16.67;78.20;101487.66;5054863;28;20045;-53
2022/06/29 01:57:29;;;;;;;7.22;3.33;;;;;;;16.69;78.29;101483.06;5053109;28;20061;-52
2022/06/29 01:59:57;;;;;;;6.45;3.13;;;;;;;16.69;78.62;101485.72;5051415;28;20452;-51
2022/06/29 02:02:26;;;;;;;7.82;3.45;;;;;;;16.64;78.81;101482.59;5053907;28;20068;-53
2022/06/29 02:04:54;;;;;;;7.97;3.97;;;;;;;16.66;78.78;101475.38;5055086;28;20052;-52
2022/06/29 02:07:22;;;;;;;9.82;3.72;;;;;;;16.63;78.99;101474.75;5055380;28;20504;-55
2022/06/29 02:09:50;;;;;;;8.05;3.83;;;;;;;16.56;79.05;101471.75;5055313;28;20049;-49
2022/06/29 02:12:19;;;;;;;7.90;3.85;;;;;;;16.50;79.54;101473.09;5055052;28;20102;-54
2022/06/29 02:14:47;;;;;;;9.20;4.38;;;;;;;16.50;79.65;101467.78;5054969;28;20049;-56
2022/06/29 02:17:15;;;;;;;8.10;4.25;;;;;;;16.47;79.60;101467.19;5055064;28;20114;-55
2022/06/29 02:19:43;;;;;;;9.98;4.80;;;;;;;16.45;79.84;101455.84;5054785;28;20106;-53
2022/06/29 02:22:11;;;;;;;10.15;4.50;;;;;;;16.43;80.11;101463.06;5050917;28;20033;-52
2022/06/29 02:24:39;;;;;;;8.75;4.40;;;;;;;16.41;80.01;101457.91;5051793;28;20060;-53
2022/06/29 02:27:07;;;;;;;8.77;4.38;;;;;;;16.37;80.57;101454.66;5054537;28;20433;-50
2022/06/29 02:29:37;;;;;;;10.07;4.55;;;;;;;16.37;80.67;101456.47;5054748;28;20049;-44
2022/06/29 02:34:50;;;;;;;7.82;4.10;;;;;;;16.31;81.61;101455.13;5051441;28;20126;-48
2022/06/29 02:37:18;;;;;;;8.32;4.45;;;;;;;16.33;81.84;101458.53;5052510;28;20077;-53
2022/06/29 02:39:46;;;;;;;8.05;4.43;;;;;;;16.34;82.32;101460.19;5054467;28;20061;-53
2022/06/29 02:42:15;;;;;;;10.10;4.50;;;;;;;16.29;82.87;101453.56;5066133;28;20587;-50
2022/06/29 02:44:45;;;;;;;7.18;4.10;;;;;;;16.27;82.15;101456.34;5051990;28;20737;-49
2022/06/29 02:47:13;;;;;;;8.98;4.25;;;;;;;16.28;82.79;101450.09;5054213;28;20057;-54
2022/06/29 02:49:41;;;;;;;7.95;4.28;;;;;;;16.23;82.67;101444.28;5054328;28;20102;-48
2022/06/29 02:52:09;;;;;;;9.95;3.95;;;;;;;16.23;83.11;101441.63;5054105;28;20069;-49
2022/06/29 02:54:37;;;;;;;7.03;4.00;;;;;;;16.18;82.87;101438.50;5054078;28;20377;-55
2022/06/29 02:57:05;;;;;;;7.88;4.45;;;;;;;16.20;82.85;101440.06;5054013;28;20041;-52
2022/06/29 02:59:33;;;;;;;7.07;4.60;;;;;;;16.20;82.25;101439.25;5050970;28;20053;-48
2022/06/29 03:02:03;;;;;;;9.13;4.53;;;;;;;16.14;82.12;101431.75;5051258;28;20060;-55
2022/06/29 03:04:34;;;;;;;9.10;4.30;;;;;;;16.14;82.54;101431.75;5053928;28;20047;-50
2022/06/29 03:07:02;;;;;;;9.10;4.70;;;;;;;16.11;83.25;101427.53;5053948;28;20481;-48
2022/06/29 03:09:30;;;;;;;8.98;4.38;;;;;;;16.13;83.49;101430.91;5049346;28;20076;-53
2022/06/29 03:11:59;;;;;;;8.50;4.35;;;;;;;16.12;83.10;101425.75;5048854;28;20052;-54
2022/06/29 03:14:27;;;;;;;8.95;4.80;;;;;;;16.11;83.33;101422.22;5053799;28;20549;-54
2022/06/29 03:16:56;;;;;;;8.43;4.68;;;;;;;16.09;83.11;101418.00;5053988;28;20040;-53
2022/06/29 03:19:26;;;;;;;9.30;4.40;;;;;;;16.04;83.65;101419.22;5053725;28;20094;-54
2022/06/29 03:21:54;;;;;;;10.98;4.80;;;;;;;16.03;83.93;101414.91;5053507;28;20095;-53
2022/06/29 03:24:22;;;;;;;7.13;4.60;;;;;;;16.02;83.88;101412.34;5053863;28;20058;-51
2022/06/29 03:26:50;;;;;;;7.30;4.78;;;;;;;16.05;84.19;101407.66;5053754;28;20085;-53
2022/06/29 03:29:18;;;;;;;8.10;5.05;;;;;;;16.04;85.11;101405.13;5053520;28;20053;-46
2022/06/29 03:31:46;;;;;;;8.77;4.82;;;;;;;16.06;86.29;101411.16;5053604;28;20123;-47
2022/06/29 03:34:15;;;;;;;9.13;5.07;;;;;;;16.03;86.98;101403.41;5050481;28;20053;-52
2022/06/29 03:36:45;;;;;;;9.90;5.20;;;;;;;15.97;87.29;101404.75;5049618;28;20083;-48
2022/06/29 03:39:13;;;;;;;9.43;5.25;;;;;;;15.94;87.52;101412.97;5051947;28;20067;-52
2022/06/29 03:41:41;;;;;;;7.55;4.95;;;;;;;15.95;86.46;101411.16;5049584;28;20041;-50
2022/06/29 03:44:09;;;;;;;8.65;5.13;;;;;;;15.92;87.06;101414.88;5051443;28;20052;-49
2022/06/29 03:46:37;;;;;;;8.63;4.65;;;;;;;15.95;86.08;101417.31;5052981;28;20057;-54
2022/06/29 03:49:05;;;;;;;7.70;4.75;;;;;;;15.91;86.85;101413.22;5052906;28;20091;-53
2022/06/29 03:51:33;;;;;;;8.32;5.07;;;;;;;15.83;86.54;101403.19;5053472;28;20102;-49
2022/06/29 03:54:03;;;;;;;9.63;4.88;;;;;;;15.81;87.48;101406.94;5051898;28;20076;-50
2022/06/29 03:56:31;;;;;;;7.30;4.60;;;;;;;15.82;87.35;101408.63;5048201;28;20057;-55
2022/06/29 03:58:59;;;;;;;8.93;4.97;;;;;;;15.80;87.86;101403.44;5051517;28;20491;-51
2022/06/29 04:01:27;;;;;;;9.05;5.15;;;;;;;15.85;87.57;101403.06;5052985;28;20072;-49
2022/06/29 04:03:56;;;;;;;8.60;5.13;;;;;;;15.85;87.90;101403.06;5052892;28;20033;-48
2022/06/29 04:06:24;;;;;;;10.32;5.43;;;;;;;15.83;88.54;101405.03;5052834;28;20041;-49
2022/06/29 04:08:52;;;;;;;8.63;5.30;;;;;;;15.81;88.59;101398.97;5053027;28;20447;-52
2022/06/29 04:14:07;;;;;;;9.20;5.55;;;;;;;15.79;89.06;101393.78;5049827;28;20648;-51
2022/06/29 04:16:36;;;;;;;9.15;5.93;;;;;;;15.84;89.27;101389.00;5065204;28;20045;-48
2022/06/29 04:19:04;;;;;;;9.75;6.13;;;;;;;15.80;88.90;101392.84;5052394;28;20044;-53
2022/06/29 04:21:32;;;;;;;10.38;5.53;;;;;;;15.82;89.38;101395.38;5051314;28;20451;-53
2022/06/29 04:24:00;;;;;;;10.88;6.07;;;;;;;15.87;89.42;101399.34;5052482;28;20040;-55
2022/06/29 04:26:30;;;;;;;10.40;5.43;;;;;;;15.92;89.73;101398.97;5052451;28;20056;-50
2022/06/29 04:28:58;;;;;;;11.25;6.00;;;;;;;15.93;89.90;101400.66;5052601;28;20056;-48
2022/06/29 04:31:26;;;;;;;10.95;6.18;;;;;;;15.94;91.07;101399.72;5052541;28;20045;-49
2022/06/29 04:33:54;;;;;;;8.63;5.95;;;;;;;16.00;91.25;101401.84;5052274;28;20045;-50
2022/06/29 04:36:22;;;;;;;10.50;5.63;;;;;;;15.99;88.98;101402.84;5052261;28;20369;-52
2022/06/29 04:38:50;;;;;;;8.90;5.60;;;;;;;15.99;87.77;101392.22;5052415;28;20123;-53
2022/06/29 04:41:19;;;;;;;7.97;5.43;;;;;;;16.00;87.34;101390.41;5052221;28;20064;-54
2022/06/29 04:43:49;;;;;;;10.60;6.13;;;;;;;16.01;87.27;101390.28;5051299;28;20041;-51
2022/06/29 04:46:21;;;;;;;8.15;5.47;;;;;;;16.02;87.42;101391.97;5048718;28;20516;-54
2022/06/29 04:48:52;;;;;;;11.52;6.45;;;;;;;16.10;86.42;101386.06;5050080;28;20099;-54
2022/06/29 04:51:20;;;;;;;10.20;6.57;;;;;;;16.10;86.85;101382.56;5048940;28;20037;-49
2022/06/29 04:53:49;;;;;;;13.98;7.65;;;;;;;16.12;86.98;101380.63;5047771;28;20057;-56
2022/06/29 04:56:17;;;;;;;12.85;7.45;;;;;;;16.14;87.01;101384.84;5052201;28;20033;-50
2022/06/29 04:58:45;;;;;;;10.55;6.78;;;;;;;16.20;85.80;101387.00;5052122;28;20095;-54
2022/06/29 05:01:15;;;;;;;11.90;7.60;;;;;;;16.33;85.86;101381.56;5051909;28;20056;-51
2022/06/29 05:03:43;;;;;;;10.80;7.03;;;;;;;16.25;86.39;101381.31;5047934;28;20055;-55
2022/06/29 05:06:11;;;;;;;12.70;7.35;;;;;;;16.34;85.53;101375.25;5047924;28;20045;-47
2022/06/29 05:08:39;;;;;;;11.52;7.25;;;;;;;16.36;86.29;101373.34;5052113;28;20110;-54
2022/06/29 05:11:07;;;;;;;12.55;7.10;;;;;;;16.42;85.99;101368.50;5051706;28;20076;-50
2022/06/29 05:13:35;;;;;;;11.32;6.95;;;;;;;16.48;85.18;101374.13;5051772;28;20072;-47
2022/06/29 05:16:04;;;;;;;11.27;7.32;;;;;;;16.58;84.95;101376.03;5051561;28;20488;-53
2022/06/29 05:18:34;;;;;;;11.90;7.47;;;;;;;16.58;83.82;101371.59;5051650;28;20052;-55
2022/06/29 05:21:03;;;;;;;11.10;7.57;;;;;;;16.67;84.54;101373.47;5051074;28;20049;-50
2022/06/29 05:23:31;;;;;;;11.77;7.82;;;;;;;16.76;83.06;101369.22;5047450;28;20075;-55
2022/06/29 05:26:00;;;;;;;11.38;7.68;;;;;;;16.82;83.43;101371.34;5047245;28;20053;-50
2022/06/29 05:28:28;;;;;;;12.52;7.78;;;;;;;16.94;83.16;101374.84;5051494;28;20041;-49
2022/06/29 05:30:56;;;;;;;11.63;6.85;;;;;;;17.03;82.40;101371.41;5051688;28;20072;-48
2022/06/29 05:33:24;;;;;;;9.65;6.78;;;;;;;17.14;82.24;101370.50;5050450;28;20055;-50
2022/06/29 05:35:54;;;;;;;12.55;6.97;;;;;;;17.22;82.03;101359.22;5048252;28;20451;-48
2022/06/29 05:38:22;;;;;;;12.25;7.78;;;;;;;17.35;81.41;101364.31;5049602;28;20049;-50
2022/06/29 05:40:50;;;;;;;12.73;7.18;;;;;;;17.39;82.13;101357.75;5051688;28;20072;-55
2022/06/29 05:43:18;;;;;;;11.50;7.43;;;;;;;17.50;82.39;101364.81;5051289;28;20045;-51
2022/06/29 05:45:47;;;;;;;10.23;6.70;;;;;;;17.59;81.13;101361.38;5050129;28;20052;-49
2022/06/29 05:48:15;;;;;;;8.77;4.65;;;;;;;17.78;79.54;101362.41;5051535;28;20103;-51
2022/06/29 05:50:43;;;;;;;9.05;4.90;;;;;;;17.82;80.49;101362.03;5051728;28;20059;-50
2022/06/29 05:53:14;;;;;;;7.32;4.93;;;;;;;17.93;80.63;101357.59;5049153;28;20496;-53
2022/06/29 05:55:43;;;;;;;8.10;4.88;;;;;;;18.08;79.66;101357.06;5046475;28;20447;-54
2022/06/29 05:58:15;;;;;;;7.38;4.45;;;;;;;18.16;79.30;101353.75;5050845;28;20060;-47
2022/06/29 06:00:43;;;;;;;7.65;4.30;;;;;;;18.30;77.07;101357.00;5055529;28;20052;-54
2022/06/29 06:03:11;;;;;;;8.02;4.60;;;;;;;18.39;77.70;101364.13;5055309;28;20128;-53
2022/06/29 06:05:39;;;;;;;8.40;5.15;;;;;;;18.51;77.78;101365.66;5055137;28;20094;-55
2022/06/29 06:08:08;;;;;;;8.20;4.88;;;;;;;18.67;76.98;101367.78;5052754;28;20048;-51
2022/06/29 06:10:37;;;;;;;9.35;5.43;;;;;;;18.77;74.50;101366.94;5050118;28;20136;-55
2022/06/29 06:13:06;;;;;;;7.53;5.18;;;;;;;18.83;74.91;101355.72;5052980;28;20091;-50
2022/06/29 06:15:36;;;;;;;9.02;5.72;;;;;;;19.00;76.44;101363.03;5055004;28;20084;-56
2022/06/29 06:18:04;;;;;;;7.05;4.50;;;;;;;19.11;76.72;101359.34;5054688;28;20045;-55
2022/06/29 06:20:32;;;;;;;7.78;4.93;;;;;;;19.28;75.23;101375.59;5054996;28;20526;-55
2022/06/29 06:23:00;;;;;;;8.15;5.30;;;;;;;19.42;74.60;101365.31;5054988;28;20049;-52
2022/06/29 06:25:30;;;;;;;8.80;5.72;;;;;;;19.55;75.18;101359.66;5054787;28;20492;-53
2022/06/29 06:28:00;;;;;;;10.38;5.95;;;;;;;19.71;73.19;101356.34;5050817;28;20404;-54
2022/06/29 06:30:28;;;;;;;10.43;6.22;;;;;;;19.82;73.74;101359.84;5052048;28;20496;-51
2022/06/29 06:32:56;;;;;;;13.35;5.70;;;;;;;19.89;72.93;101364.47;5054232;28;20080;-55
2022/06/29 06:35:24;;;;;;;11.63;5.70;;;;;;;20.00;73.16;101355.41;5053915;28;20091;-49
2022/06/29 06:37:52;;;;;;;7.32;5.30;;;;;;;20.20;74.08;101357.94;5054649;28;20512;-52
2022/06/29 06:43:07;;;;;;;9.70;4.97;;;;;;;20.68;72.88;101363.91;5054223;28;20554;-48
2022/06/29 06:45:35;;;;;;;12.63;6.75;;;;;;;20.79;71.24;101365.53;5054014;28;20064;-48
2022/06/29 06:48:03;;;;;;;9.48;5.35;;;;;;;20.99;68.97;101359.00;5054341;28;20427;-51
2022/06/29 06:50:31;;;;;;;8.07;5.20;;;;;;;21.10;70.13;101358.78;5054111;28;20455;-52
2022/06/29 06:52:59;;;;;;;11.07;5.65;;;;;;;21.15;70.05;101349.44;5054145;28;20044;-54
2022/06/29 06:55:27;;;;;;;7.72;5.15;;;;;;;21.20;68.78;101356.00;5051198;28;20079;-46
2022/06/29 06:57:55;;;;;;;7.50;5.47;;;;;;;21.26;69.19;101351.84;5051002;28;20079;-50
2022/06/29 07:00:25;;;;;;;7.55;5.07;;;;;;;21.27;70.12;101356.19;5051990;28;20562;-50
2022/06/29 07:02:53;;;;;;;10.85;5.50;;;;;;;21.34;69.26;101349.22;5053500;28;20163;-53
2022/06/29 07:05:21;;;;;;;9.68;5.63;;;;;;;21.37;68.50;101356.09;5053838;28;20045;-54
2022/06/29 07:07:49;;;;;;;8.73;5.47;;;;;;;21.35;68.53;101356.25;5052639;28;20102;-53
2022/06/29 07:10:17;;;;;;;10.50;5.00;;;;;;;21.32;68.26;101356.53;5052984;28;20377;-54
2022/06/29 07:12:45;;;;;;;8.55;5.22;;;;;;;21.35;68.42;101348.22;5053339;28;20053;-49
2022/06/29 07:15:13;;;;;;;9.63;4.85;;;;;;;21.42;67.10;101345.75;5053402;28;20443;-47
2022/06/29 07:17:43;;;;;;;10.95;4.45;;;;;;;21.50;68.28;101339.59;5053709;28;20052;-54
2022/06/29 07:20:11;;;;;;;8.32;4.60;;;;;;;21.56;69.44;101336.31;5053075;28;20118;-55
2022/06/29 07:22:42;;;;;;;7.72;4.80;;;;;;;21.67;67.33;101341.38;5053419;28;20049;-47
2022/06/29 07:25:10;;;;;;;6.50;3.15;;;;;;;21.69;66.48;101338.53;5053523;28;20116;-47
2022/06/29 07:27:38;;;;;;;8.98;4.10;;;;;;;21.80;65.58;101340.06;5053641;28;20057;-46
2022/06/29 07:30:07;;;;;;;7.72;4.15;;;;;;;21.93;65.25;101337.78;5052839;28;20052;-49
2022/06/29 07:32:35;;;;;;;7.45;3.72;;;;;;;22.05;65.93;101341.84;5049170;28;20053;-52
2022/06/29 07:35:05;;;;;;;7.22;3.20;;;;;;;22.29;63.34;101342.88;5050182;28;20044;-54
2022/06/29 07:37:33;;;;;;;5.88;3.05;;;;;;;22.43;61.44;101336.06;5052821;28;20055;-54
2022/06/29 07:40:01;;;;;;;9.93;4.28;;;;;;;22.68;62.42;101342.28;5053013;28;20107;-45
2022/06/29 07:42:40;;;;;;;7.57;3.03;;;;;;;22.79;60.69;101344.59;5053191;28;20129;-50
2022/06/29 07:45:09;;;;;;;5.03;2.45;;;;;;;22.89;56.66;101338.22;5052370;28;21196;-47
2022/06/29 07:47:38;;;;;;;5.78;2.60;;;;;;;23.08;56.07;101339.72;5049670;28;20487;-54
2022/06/29 07:50:08;;;;;;;7.05;2.75;;;;;;;23.23;55.95;101338.06;5051301;28;20045;-53
2022/06/29 07:52:36;;;;;;;5.95;2.60;;;;;;;23.49;57.79;101333.44;5053313;28;20045;-48
2022/06/29 07:55:05;;;;;;;5.60;2.35;;;;;;;23.68;55.58;101329.50;5052895;28;20543;-53
2022/06/29 07:57:33;;;;;;;6.75;3.10;;;;;;;23.87;55.17;101328.22;5052166;28;20124;-47
2022/06/29 08:00:01;;;;;;;5.40;2.60;;;;;;;24.04;55.45;101329.03;5050252;28;20468;-54
2022/06/29 08:02:29;;;;;;;5.07;2.28;;;;;;;24.21;55.71;101321.69;5050401;28;20130;-56
2022/06/29 08:04:59;;;;;;;7.28;2.72;;;;;;;24.46;55.34;101327.72;5052814;28;20098;-55
2022/06/29 08:07:34;;;;;;;7.00;2.50;;;;;;;24.64;51.47;101330.13;5052649;28;20055;-55
2022/06/29 08:10:02;;;;;;;4.85;1.80;;;;;;;24.90;50.14;101321.63;5052647;28;20056;-55
2022/06/29 08:12:31;;;;;;;6.93;1.98;;;;;;;24.93;50.97;101325.81;5051350;28;20049;-52
2022/06/29 08:14:59;;;;;;;4.43;1.90;;;;;;;25.04;49.23;101322.66;5049272;28;20045;-55
2022/06/29 08:17:27;;;;;;;5.40;2.08;;;;;;;25.29;49.05;101319.69;5051068;28;20561;-55
2022/06/29 08:20:01;;;;;;;6.20;2.05;;;;;;;25.45;46.26;101327.59;5049060;28;20103;-52
2022/06/29 08:22:29;;;;;;;6.10;1.80;;;;;;;25.45;46.59;101330.31;5049652;28;20455;-46
2022/06/29 08:24:59;;;;;;;5.80;1.70;;;;;;;25.51;46.74;101327.91;5052857;28;20630;-55
2022/06/29 08:27:27;;;;;;;4.30;1.55;;;;;;;25.42;46.28;101319.91;5052537;28;20098;-56
2022/06/29 08:30:14;;;;;;;5.55;2.00;;;;;;;25.65;46.61;101327.06;5052243;28;20060;-48
2022/06/29 08:32:44;;;;;;;5.40;2.25;;;;;;;25.71;46.39;101322.75;5052689;28;20392;-50
2022/06/29 08:35:14;;;;;;;3.88;1.80;;;;;;;25.91;46.44;101328.41;5052159;28;20122;-55
2022/06/29 08:37:43;;;;;;;5.28;1.88;;;;;;;26.05;44.37;101324.84;5052592;28;20179;-49
2022/06/29 08:40:15;;;;;;;7.22;2.00;;;;;;;26.04;45.00;101325.88;5052245;28;20072;-54
2022/06/29 08:42:43;;;;;;;6.93;1.70;;;;;;;26.08;45.51;101327.16;5052489;28;20442;-55
2022/06/29 08:45:14;;;;;;;4.95;2.08;;;;;;;26.26;46.01;101320.47;5051726;28;20053;-55
2022/06/29 08:47:43;;;;;;;6.88;1.90;;;;;;;26.37;48.34;101322.69;5051501;28;20045;-49
2022/06/29 08:50:12;;;;;;;5.85;2.13;;;;;;;26.58;46.57;101321.81;5048383;28;20048;-52
2022/06/29 08:52:43;;;;;;;6.20;2.17;;;;;;;26.73;46.67;101315.53;5050314;28;20483;-54
2022/06/29 08:55:12;;;;;;;5.25;2.00;;;;;;;26.84;46.33;101320.38;5051928;28;20049;-49
2022/06/29 08:57:43;;;;;;;8.63;2.00;;;;;;;27.00;44.71;101321.97;5051976;28;20044;-55
2022/06/29 09:00:12;;;;;;;4.68;1.95;;;;;;;27.14;44.94;101314.78;5067356;28;20056;-54
2022/06/29 09:02:41;;;;;;;5.03;1.90;;;;;;;27.32;42.96;101312.38;5052015;28;20045;-47
2022/06/29 09:05:10;;;;;;;7.50;2.08;;;;;;;27.24;43.88;101317.09;5051542;28;20675;-54
2022/06/29 09:07:38;;;;;;;4.65;1.75;;;;;;;27.27;43.81;101311.34;5051590;28;20124;-49
2022/06/29 09:10:09;;;;;;;3.50;1.60;;;;;;;27.31;42.10;101315.28;5045696;28;20088;-47
2022/06/29 09:12:39;;;;;;;5.43;1.67;;;;;;;27.68;41.45;101318.59;5049210;28;20106;-47
2022/06/29 09:15:09;;;;;;;5.13;1.80;;;;;;;27.85;41.50;101310.13;5050506;28;20098;-53
2022/06/29 09:17:39;;;;;;;6.57;1.90;;;;;;;27.90;41.45;101311.19;5051657;28;20127;-53
2022/06/29 09:20:08;;;;;;;4.07;1.83;;;;;;;27.97;40.90;101305.78;5051576;28;20049;-54
2022/06/29 09:23:00;;;;;;;5.60;1.80;;;;;;;28.22;40.53;101308.75;5048292;28;20059;-55
2022/06/29 09:25:30;;;;;;;3.03;1.55;;;;;;;28.59;40.32;101306.50;5049253;28;20036;-48
2022/06/29 09:28:00;;;;;;;5.78;1.90;;;;;;;28.83;41.87;101305.03;5052024;28;20049;-50
2022/06/29 09:30:30;;;;;;;3.95;1.60;;;;;;;29.06;39.27;101301.06;5050100;28;20103;-48
2022/06/29 09:33:01;;;;;;;5.72;1.70;;;;;;;28.82;38.38;101306.09;5048774;28;20049;-53
2022/06/29 09:35:29;;;;;;;4.25;1.40;;;;;;;29.13;37.80;101306.44;5054976;28;20427;-55
2022/06/29 09:38:19;;;;;;;3.95;1.52;;;;;;;29.30;39.35;101301.41;5053827;28;20033;-51
2022/06/29 09:41:02;;;;;;;3.80;1.30;;;;;;;29.22;39.33;101299.78;5055166;28;20139;-54
2022/06/29 09:43:32;;;;;;;;;;;;;;;29.29;37.38;101297.88;5052569;28;20052;-54
2022/06/29 09:46:01;;;;;;;3.17;1.42;;;;;;;29.68;37.99;101303.34;5052890;28;19921;-46
2022/06/29 09:48:32;;;;;;;3.65;1.45;;;;;;;29.87;35.31;101304.31;5055705;28;20415;-46
2022/06/29 09:51:00;;;;;;;5.40;1.35;;;;;;;29.95;34.91;101303.22;5053820;28;20423;-53
2022/06/29 09:53:37;;;;;;;3.35;1.40;;;;;;;30.18;37.24;101300.78;5051757;28;20139;-48
2022/06/29 09:56:07;;;;;;;2.30;1.17;;;;;;;30.46;36.53;101299.56;5054221;28;20045;-54
2022/06/29 09:58:45;;;;;;;3.67;1.50;;;;;;;30.62;36.37;101294.59;5055403;28;20045;-55
2022/06/29 10:04:00;;;;;;;4.25;1.45;;;;;;;31.26;32.59;101288.97;5052026;28;20053;-53
2022/06/29 10:06:29;;;;;;;4.43;1.27;;;;;;;31.02;32.35;101294.22;5054771;28;20079;-47
2022/06/29 10:09:02;;;;;;;4.57;1.30;;;;;;;30.93;34.30;101288.25;5053883;28;20431;-48
2022/06/29 10:14:55;;;;;;;2.03;1.20;;;;;;;30.70;33.55;101288.91;5054310;28;20052;-54
2022/06/29 10:17:36;;;;;;;3.35;1.50;;;;;;;30.28;35.30;101288.59;5050779;28;20048;-47
2022/06/29 10:20:24;;;;;;;2.58;1.10;;;;;;;30.43;34.35;101283.69;5054981;28;20504;-49
2022/06/29 10:22:52;;;;;;;2.60;1.17;;;;;;;30.11;32.54;101275.59;5055149;28;20045;-51
2022/06/29 10:25:27;;;;;;;2.95;1.40;;;;;;;30.14;33.27;101275.13;5054289;28;20051;-54
2022/06/29 10:28:16;;;;;;;6.35;1.30;;;;;;;29.86;33.33;101272.00;5051444;28;20055;-47
2022/06/29 10:30:46;;;;;;;3.05;1.33;;;;;;;30.06;33.09;101278.13;5053177;28;20531;-53
2022/06/29 10:33:36;;;;;;;3.83;1.10;;;;;;;29.74;33.29;101274.56;5051770;28;20087;-47
2022/06/29 10:36:06;;;;;;;2.65;1.20;;;;;;;29.90;34.04;101275.94;5051583;28;20052;-48
2022/06/29 10:39:11;;;;;;;4.10;1.30;;;;;;;29.50;35.17;101274.25;5054392;28;20056;-53
2022/06/29 10:44:56;;;;;;;4.72;1.33;;;;;;;29.63;35.59;101276.09;5011959;28;20054;-48
2022/06/29 10:47:25;;;;;;;4.45;1.45;;;;;;;29.46;34.75;101273.88;5046179;28;20052;-47
2022/06/29 10:50:24;;;;;;;1.83;1.17;;;;;;;29.94;34.81;101277.16;5050523;28;20099;-49
2022/06/29 10:52:54;;;;;;;2.97;1.10;;;;;;;30.28;32.33;101266.91;5051338;28;20056;-55
2022/06/29 10:55:23;;;;;;;2.70;1.30;;;;;;;30.17;32.38;101271.16;5054389;28;20076;-52
2022/06/29 10:57:52;;;;;;;2.53;1.17;;;;;;;30.44;31.38;101270.97;5051404;28;20480;-54
2022/06/29 11:00:22;;;;;;;2.25;1.10;;;;;;;30.62;31.23;101272.91;5050485;28;20057;-47
2022/06/29 11:02:52;;;;;;;4.55;1.25;;;;;;;30.58;29.52;101267.09;5053374;28;20490;-54
2022/06/29 11:05:20;;;;;;;3.58;1.13;;;;;;;30.60;29.57;101266.88;5053626;28;20049;-53
2022/06/29 11:13:22;;;;;;;4.43;1.27;;;;;;;30.82;30.01;101265.38;5053244;28;20044;-49
2022/06/29 11:15:51;;;;;;;3.10;1.13;;;;;;;31.11;30.65;101262.19;5050348;28;20044;-54
2022/06/29 11:18:23;;;;;;;2.97;1.00;;;;;;;31.22;29.31;101255.97;5051653;28;20472;-51
2022/06/29 11:20:52;;;;;;;2.17;1.25;;;;;;;31.47;30.58;101252.34;5069191;28;20068;-51
2022/06/29 11:23:24;;;;;;;4.25;1.20;;;;;;;31.55;30.43;101243.88;5053662;28;20140;-54
2022/06/29 11:25:54;;;;;;;2.63;1.10;;;;;;;31.56;29.41;101239.25;5053858;28;20106;-56
2022/06/29 11:28:25;;;;;;;4.72;1.20;;;;;;;31.38;29.39;101253.72;5053435;28;20056;-53
2022/06/29 11:31:01;;;;;;;2.75;0.93;;;;;;;30.98;29.49;101249.56;5054010;28;20079;-52
2022/06/29 11:33:32;;;;;;;2.42;0.98;;;;;;;31.10;30.18;101236.06;5050892;28;20041;-54
2022/06/29 11:36:05;;;;;;;4.40;1.10;;;;;;;31.56;29.58;101241.97;5049654;28;20052;-47
2022/06/29 11:38:37;;;;;;;2.13;1.00;;;;;;;31.91;29.63;101233.13;5052901;28;20091;-47
2022/06/29 11:41:11;;;;;;;4.43;1.20;;;;;;;31.77;28.15;101233.31;5053289;28;20045;-56
2022/06/29 11:44:04;;;;;;;2.72;1.20;;;;;;;31.56;28.84;101226.47;5053289;28;20075;-49
2022/06/29 11:46:35;;;;;;;6.18;1.08;;;;;;;32.17;28.92;101216.38;5053328;28;20037;-50
2022/06/29 11:52:04;;;;;;;3.78;1.10;;;;;;;32.35;27.58;101220.06;5051501;28;20053;-50
2022/06/29 11:54:38;;;;;;;2.30;1.08;;;;;;;32.23;28.32;101211.06;5052229;28;20049;-55
2022/06/29 11:57:09;;;;;;;2.22;1.10;;;;;;;32.35;28.45;101214.63;5052764;28;20145;-55
2022/06/29 11:59:39;;;;;;;2.85;1.25;;;;;;;32.68;28.80;101214.00;5053234;28;20389;-53
2022/06/29 12:02:08;;;;;;;3.13;1.30;;;;;;;32.77;28.33;101211.78;5053153;28;20052;-52